sensor_id;sensor_type;location;lat;lon;timestamp;P1;durP1;ratioP1;P2;durP2;ratioP2
17796;SDS011;55596;53.554;9.916;2022-12-18T00:00:12;27.03;;;14.27;;
17796;SDS011;55596;53.554;9.916;2022-12-18T00:02:41;27.10;;;14.67;;
17796;SDS011;55596;53.554;9.916;2022-12-18T00:05:08;28.33;;;15.70;;
17796;SDS011;55596;53.554;9.916;2022-12-18T00:07:35;22.90;;;14.43;;
17796;SDS011;55596;53.554;9.916;2022-12-18T00:10:03;22.90;;;14.60;;
17796;SDS011;55596;53.554;9.916;2022-12-18T00:12:31;26.03;;;14.33;;
17796;SDS011;55596;53.554;9.916;2022-12-18T00:14:58;22.93;;;13.90;;
17796;SDS011;55596;53.554;9.916;2022-12-18T00:17:25;23.43;;;13.87;;
17796;SDS011;55596;53.554;9.916;2022-12-18T00:19:53;28.30;;;14.90;;
17796;SDS011;55596;53.554;9.916;2022-12-18T00:22:20;25.43;;;14.83;;
17796;SDS011;55596;53.554;9.916;2022-12-18T00:24:47;29.23;;;15.17;;
17796;SDS011;55596;53.554;9.916;2022-12-18T00:27:14;21.40;;;13.50;;
17796;SDS011;55596;53.554;9.916;2022-12-18T00:29:41;21.70;;;13.63;;
17796;SDS011;55596;53.554;9.916;2022-12-18T00:32:08;27.97;;;13.80;;
17796;SDS011;55596;53.554;9.916;2022-12-18T00:34:35;20.53;;;13.60;;
17796;SDS011;55596;53.554;9.916;2022-12-18T00:37:03;22.90;;;13.77;;
17796;SDS011;55596;53.554;9.916;2022-12-18T00:39:30;23.37;;;13.73;;
17796;SDS011;55596;53.554;9.916;2022-12-18T00:41:57;22.80;;;13.87;;
17796;SDS011;55596;53.554;9.916;2022-12-18T00:44:41;20.17;;;12.50;;
17796;SDS011;55596;53.554;9.916;2022-12-18T00:47:08;20.87;;;13.07;;
17796;SDS011;55596;53.554;9.916;2022-12-18T00:49:35;21.67;;;14.07;;
17796;SDS011;55596;53.554;9.916;2022-12-18T00:52:04;23.23;;;14.47;;
17796;SDS011;55596;53.554;9.916;2022-12-18T00:54:32;23.67;;;14.30;;
17796;SDS011;55596;53.554;9.916;2022-12-18T00:56:59;22.53;;;14.67;;
17796;SDS011;55596;53.554;9.916;2022-12-18T00:59:27;24.57;;;14.00;;
17796;SDS011;55596;53.554;9.916;2022-12-18T01:01:55;22.67;;;14.10;;
17796;SDS011;55596;53.554;9.916;2022-12-18T01:04:22;25.07;;;13.90;;
17796;SDS011;55596;53.554;9.916;2022-12-18T01:06:48;21.30;;;13.23;;
17796;SDS011;55596;53.554;9.916;2022-12-18T01:09:17;25.07;;;13.53;;
17796;SDS011;55596;53.554;9.916;2022-12-18T01:11:44;24.50;;;13.57;;
17796;SDS011;55596;53.554;9.916;2022-12-18T01:14:11;21.70;;;13.83;;
17796;SDS011;55596;53.554;9.916;2022-12-18T01:16:38;25.83;;;13.80;;
17796;SDS011;55596;53.554;9.916;2022-12-18T01:19:05;21.53;;;12.93;;
17796;SDS011;55596;53.554;9.916;2022-12-18T01:21:31;22.33;;;13.17;;
17796;SDS011;55596;53.554;9.916;2022-12-18T01:23:58;21.50;;;13.60;;
17796;SDS011;55596;53.554;9.916;2022-12-18T01:26:27;20.80;;;13.53;;
17796;SDS011;55596;53.554;9.916;2022-12-18T01:28:55;22.20;;;13.20;;
17796;SDS011;55596;53.554;9.916;2022-12-18T01:31:23;21.33;;;13.73;;
17796;SDS011;55596;53.554;9.916;2022-12-18T01:33:52;22.30;;;13.23;;
17796;SDS011;55596;53.554;9.916;2022-12-18T01:36:20;24.70;;;13.77;;
17796;SDS011;55596;53.554;9.916;2022-12-18T01:38:49;23.63;;;13.70;;
17796;SDS011;55596;53.554;9.916;2022-12-18T01:41:17;21.27;;;12.93;;
17796;SDS011;55596;53.554;9.916;2022-12-18T01:43:50;22.67;;;12.67;;
17796;SDS011;55596;53.554;9.916;2022-12-18T01:46:19;21.30;;;13.00;;
17796;SDS011;55596;53.554;9.916;2022-12-18T01:48:52;26.53;;;13.17;;
17796;SDS011;55596;53.554;9.916;2022-12-18T01:51:21;21.70;;;12.70;;
17796;SDS011;55596;53.554;9.916;2022-12-18T01:53:49;24.40;;;13.90;;
17796;SDS011;55596;53.554;9.916;2022-12-18T01:56:16;19.87;;;13.30;;
17796;SDS011;55596;53.554;9.916;2022-12-18T01:58:48;22.83;;;12.27;;
17796;SDS011;55596;53.554;9.916;2022-12-18T02:01:20;18.73;;;12.87;;
17796;SDS011;55596;53.554;9.916;2022-12-18T02:03:50;18.63;;;11.63;;
17796;SDS011;55596;53.554;9.916;2022-12-18T02:06:19;19.47;;;12.27;;
17796;SDS011;55596;53.554;9.916;2022-12-18T02:08:56;18.37;;;11.80;;
17796;SDS011;55596;53.554;9.916;2022-12-18T02:11:32;21.57;;;12.00;;
17796;SDS011;55596;53.554;9.916;2022-12-18T02:14:10;20.73;;;11.90;;
17796;SDS011;55596;53.554;9.916;2022-12-18T02:16:44;20.53;;;11.67;;
17796;SDS011;55596;53.554;9.916;2022-12-18T02:19:20;21.63;;;11.93;;
17796;SDS011;55596;53.554;9.916;2022-12-18T02:22:11;20.00;;;11.40;;
17796;SDS011;55596;53.554;9.916;2022-12-18T02:24:54;18.87;;;11.47;;
17796;SDS011;55596;53.554;9.916;2022-12-18T02:27:33;20.20;;;12.57;;
17796;SDS011;55596;53.554;9.916;2022-12-18T02:30:03;22.53;;;12.20;;
17796;SDS011;55596;53.554;9.916;2022-12-18T02:32:33;21.03;;;12.20;;
17796;SDS011;55596;53.554;9.916;2022-12-18T02:35:05;22.07;;;11.33;;
17796;SDS011;55596;53.554;9.916;2022-12-18T02:37:34;18.43;;;11.73;;
17796;SDS011;55596;53.554;9.916;2022-12-18T02:40:03;19.87;;;12.30;;
17796;SDS011;55596;53.554;9.916;2022-12-18T02:42:32;19.17;;;11.07;;
17796;SDS011;55596;53.554;9.916;2022-12-18T02:45:00;24.40;;;11.80;;
17796;SDS011;55596;53.554;9.916;2022-12-18T02:47:27;25.60;;;12.17;;
17796;SDS011;55596;53.554;9.916;2022-12-18T02:50:02;21.13;;;12.33;;
17796;SDS011;55596;53.554;9.916;2022-12-18T02:52:39;22.10;;;12.40;;
17796;SDS011;55596;53.554;9.916;2022-12-18T02:55:18;19.17;;;11.37;;
17796;SDS011;55596;53.554;9.916;2022-12-18T02:57:56;21.10;;;11.77;;
17796;SDS011;55596;53.554;9.916;2022-12-18T03:00:28;22.33;;;11.47;;
17796;SDS011;55596;53.554;9.916;2022-12-18T03:03:03;20.27;;;11.03;;
17796;SDS011;55596;53.554;9.916;2022-12-18T03:05:37;18.80;;;12.60;;
17796;SDS011;55596;53.554;9.916;2022-12-18T03:08:07;19.57;;;12.57;;
17796;SDS011;55596;53.554;9.916;2022-12-18T03:10:39;20.17;;;11.47;;
17796;SDS011;55596;53.554;9.916;2022-12-18T03:13:12;21.03;;;12.43;;
17796;SDS011;55596;53.554;9.916;2022-12-18T03:15:44;25.90;;;11.60;;
17796;SDS011;55596;53.554;9.916;2022-12-18T03:18:15;22.93;;;11.43;;
17796;SDS011;55596;53.554;9.916;2022-12-18T03:20:45;19.13;;;12.00;;
17796;SDS011;55596;53.554;9.916;2022-12-18T03:23:18;20.80;;;12.37;;
17796;SDS011;55596;53.554;9.916;2022-12-18T03:25:48;18.33;;;11.33;;
17796;SDS011;55596;53.554;9.916;2022-12-18T03:28:22;20.03;;;11.77;;
17796;SDS011;55596;53.554;9.916;2022-12-18T03:30:50;18.47;;;11.53;;
17796;SDS011;55596;53.554;9.916;2022-12-18T03:33:23;18.43;;;11.10;;
17796;SDS011;55596;53.554;9.916;2022-12-18T03:35:54;23.13;;;12.23;;
17796;SDS011;55596;53.554;9.916;2022-12-18T03:38:23;21.37;;;11.03;;
17796;SDS011;55596;53.554;9.916;2022-12-18T03:40:53;20.27;;;11.20;;
17796;SDS011;55596;53.554;9.916;2022-12-18T03:43:30;20.97;;;11.67;;
17796;SDS011;55596;53.554;9.916;2022-12-18T03:46:06;20.80;;;11.13;;
17796;SDS011;55596;53.554;9.916;2022-12-18T03:48:41;20.70;;;11.37;;
17796;SDS011;55596;53.554;9.916;2022-12-18T03:51:11;22.90;;;12.00;;
17796;SDS011;55596;53.554;9.916;2022-12-18T03:53:43;19.07;;;11.47;;
17796;SDS011;55596;53.554;9.916;2022-12-18T03:56:16;17.80;;;10.67;;
17796;SDS011;55596;53.554;9.916;2022-12-18T03:58:46;19.60;;;11.53;;
17796;SDS011;55596;53.554;9.916;2022-12-18T04:01:16;19.97;;;11.30;;
17796;SDS011;55596;53.554;9.916;2022-12-18T04:03:44;26.20;;;12.50;;
17796;SDS011;55596;53.554;9.916;2022-12-18T04:06:15;20.50;;;10.63;;
17796;SDS011;55596;53.554;9.916;2022-12-18T04:08:44;20.87;;;11.70;;
17796;SDS011;55596;53.554;9.916;2022-12-18T04:11:12;18.73;;;10.90;;
17796;SDS011;55596;53.554;9.916;2022-12-18T04:13:38;16.07;;;10.80;;
17796;SDS011;55596;53.554;9.916;2022-12-18T04:16:07;19.27;;;11.07;;
17796;SDS011;55596;53.554;9.916;2022-12-18T04:18:35;17.90;;;10.30;;
17796;SDS011;55596;53.554;9.916;2022-12-18T04:21:02;22.57;;;11.23;;
17796;SDS011;55596;53.554;9.916;2022-12-18T04:23:29;15.70;;;9.63;;
17796;SDS011;55596;53.554;9.916;2022-12-18T04:25:56;20.60;;;10.50;;
17796;SDS011;55596;53.554;9.916;2022-12-18T04:28:23;19.57;;;10.57;;
17796;SDS011;55596;53.554;9.916;2022-12-18T04:30:50;22.87;;;11.80;;
17796;SDS011;55596;53.554;9.916;2022-12-18T04:33:18;15.83;;;9.67;;
17796;SDS011;55596;53.554;9.916;2022-12-18T04:35:45;17.93;;;9.50;;
17796;SDS011;55596;53.554;9.916;2022-12-18T04:38:12;17.77;;;10.00;;
17796;SDS011;55596;53.554;9.916;2022-12-18T04:40:39;16.77;;;10.10;;
17796;SDS011;55596;53.554;9.916;2022-12-18T04:43:06;13.63;;;9.03;;
17796;SDS011;55596;53.554;9.916;2022-12-18T04:45:33;16.97;;;9.47;;
17796;SDS011;55596;53.554;9.916;2022-12-18T04:48:00;17.53;;;10.00;;
17796;SDS011;55596;53.554;9.916;2022-12-18T04:50:29;19.93;;;9.90;;
17796;SDS011;55596;53.554;9.916;2022-12-18T04:52:56;18.40;;;10.47;;
17796;SDS011;55596;53.554;9.916;2022-12-18T04:55:26;15.97;;;10.37;;
17796;SDS011;55596;53.554;9.916;2022-12-18T04:57:53;17.43;;;11.43;;
17796;SDS011;55596;53.554;9.916;2022-12-18T05:00:20;20.30;;;12.00;;
17796;SDS011;55596;53.554;9.916;2022-12-18T05:02:47;20.33;;;13.73;;
17796;SDS011;55596;53.554;9.916;2022-12-18T05:05:14;20.63;;;12.63;;
17796;SDS011;55596;53.554;9.916;2022-12-18T05:07:44;20.13;;;12.73;;
17796;SDS011;55596;53.554;9.916;2022-12-18T05:10:11;20.57;;;12.37;;
17796;SDS011;55596;53.554;9.916;2022-12-18T05:12:38;21.57;;;11.20;;
17796;SDS011;55596;53.554;9.916;2022-12-18T05:15:23;20.33;;;11.73;;
17796;SDS011;55596;53.554;9.916;2022-12-18T05:17:50;22.77;;;11.97;;
17796;SDS011;55596;53.554;9.916;2022-12-18T05:20:17;18.60;;;10.90;;
17796;SDS011;55596;53.554;9.916;2022-12-18T05:22:45;14.33;;;9.23;;
17796;SDS011;55596;53.554;9.916;2022-12-18T05:25:12;16.90;;;10.73;;
17796;SDS011;55596;53.554;9.916;2022-12-18T05:27:40;17.87;;;10.53;;
17796;SDS011;55596;53.554;9.916;2022-12-18T05:30:07;20.03;;;10.90;;
17796;SDS011;55596;53.554;9.916;2022-12-18T05:32:35;16.57;;;11.83;;
17796;SDS011;55596;53.554;9.916;2022-12-18T05:35:02;19.93;;;10.77;;
17796;SDS011;55596;53.554;9.916;2022-12-18T05:37:30;18.03;;;10.43;;
17796;SDS011;55596;53.554;9.916;2022-12-18T05:39:58;20.20;;;11.80;;
17796;SDS011;55596;53.554;9.916;2022-12-18T05:42:25;22.60;;;10.77;;
17796;SDS011;55596;53.554;9.916;2022-12-18T05:44:52;18.77;;;11.33;;
17796;SDS011;55596;53.554;9.916;2022-12-18T05:47:19;21.07;;;11.50;;
17796;SDS011;55596;53.554;9.916;2022-12-18T05:49:46;17.60;;;11.33;;
17796;SDS011;55596;53.554;9.916;2022-12-18T05:52:12;21.60;;;11.23;;
17796;SDS011;55596;53.554;9.916;2022-12-18T05:54:39;18.87;;;11.40;;
17796;SDS011;55596;53.554;9.916;2022-12-18T05:57:07;18.97;;;11.10;;
17796;SDS011;55596;53.554;9.916;2022-12-18T05:59:35;18.90;;;11.30;;
17796;SDS011;55596;53.554;9.916;2022-12-18T06:02:04;18.13;;;11.10;;
17796;SDS011;55596;53.554;9.916;2022-12-18T06:04:31;17.60;;;10.83;;
17796;SDS011;55596;53.554;9.916;2022-12-18T06:06:58;19.30;;;10.87;;
17796;SDS011;55596;53.554;9.916;2022-12-18T06:09:25;19.83;;;11.40;;
17796;SDS011;55596;53.554;9.916;2022-12-18T06:11:52;18.70;;;11.03;;
17796;SDS011;55596;53.554;9.916;2022-12-18T06:14:20;17.53;;;10.60;;
17796;SDS011;55596;53.554;9.916;2022-12-18T06:16:47;18.57;;;10.27;;
17796;SDS011;55596;53.554;9.916;2022-12-18T06:19:18;18.93;;;10.37;;
17796;SDS011;55596;53.554;9.916;2022-12-18T06:21:45;22.83;;;11.83;;
17796;SDS011;55596;53.554;9.916;2022-12-18T06:24:12;21.80;;;11.97;;
17796;SDS011;55596;53.554;9.916;2022-12-18T06:26:39;21.57;;;10.73;;
17796;SDS011;55596;53.554;9.916;2022-12-18T06:29:06;20.40;;;11.13;;
17796;SDS011;55596;53.554;9.916;2022-12-18T06:31:34;17.93;;;11.07;;
17796;SDS011;55596;53.554;9.916;2022-12-18T06:34:02;17.30;;;10.13;;
17796;SDS011;55596;53.554;9.916;2022-12-18T06:36:30;19.73;;;11.90;;
17796;SDS011;55596;53.554;9.916;2022-12-18T06:38:57;21.80;;;11.73;;
17796;SDS011;55596;53.554;9.916;2022-12-18T06:41:24;18.43;;;10.63;;
17796;SDS011;55596;53.554;9.916;2022-12-18T06:43:51;18.60;;;10.30;;
17796;SDS011;55596;53.554;9.916;2022-12-18T06:46:19;18.73;;;10.70;;
17796;SDS011;55596;53.554;9.916;2022-12-18T06:48:48;18.47;;;11.20;;
17796;SDS011;55596;53.554;9.916;2022-12-18T06:51:17;27.57;;;11.70;;
17796;SDS011;55596;53.554;9.916;2022-12-18T06:53:45;19.73;;;11.03;;
17796;SDS011;55596;53.554;9.916;2022-12-18T06:56:12;18.33;;;11.03;;
17796;SDS011;55596;53.554;9.916;2022-12-18T06:58:39;17.80;;;11.17;;
17796;SDS011;55596;53.554;9.916;2022-12-18T07:01:08;22.13;;;11.40;;
17796;SDS011;55596;53.554;9.916;2022-12-18T07:03:37;21.70;;;11.23;;
17796;SDS011;55596;53.554;9.916;2022-12-18T07:06:06;15.77;;;10.27;;
17796;SDS011;55596;53.554;9.916;2022-12-18T07:08:40;21.27;;;11.00;;
17796;SDS011;55596;53.554;9.916;2022-12-18T07:11:07;16.40;;;10.50;;
17796;SDS011;55596;53.554;9.916;2022-12-18T07:13:35;15.17;;;10.27;;
17796;SDS011;55596;53.554;9.916;2022-12-18T07:16:06;18.57;;;10.87;;
17796;SDS011;55596;53.554;9.916;2022-12-18T07:18:34;17.47;;;10.57;;
17796;SDS011;55596;53.554;9.916;2022-12-18T07:21:06;20.73;;;11.20;;
17796;SDS011;55596;53.554;9.916;2022-12-18T07:23:38;18.53;;;11.07;;
17796;SDS011;55596;53.554;9.916;2022-12-18T07:26:07;19.53;;;11.13;;
17796;SDS011;55596;53.554;9.916;2022-12-18T07:28:38;17.90;;;11.20;;
17796;SDS011;55596;53.554;9.916;2022-12-18T07:31:08;20.13;;;11.63;;
17796;SDS011;55596;53.554;9.916;2022-12-18T07:33:36;22.77;;;11.43;;
17796;SDS011;55596;53.554;9.916;2022-12-18T07:36:04;21.40;;;10.57;;
17796;SDS011;55596;53.554;9.916;2022-12-18T07:38:34;19.50;;;10.10;;
17796;SDS011;55596;53.554;9.916;2022-12-18T07:41:01;17.63;;;10.97;;
17796;SDS011;55596;53.554;9.916;2022-12-18T07:43:29;19.87;;;11.57;;
17796;SDS011;55596;53.554;9.916;2022-12-18T07:45:56;17.97;;;10.30;;
17796;SDS011;55596;53.554;9.916;2022-12-18T07:48:23;16.10;;;10.20;;
17796;SDS011;55596;53.554;9.916;2022-12-18T07:50:50;16.30;;;10.20;;
17796;SDS011;55596;53.554;9.916;2022-12-18T07:53:18;16.37;;;9.93;;
17796;SDS011;55596;53.554;9.916;2022-12-18T07:55:45;19.50;;;11.30;;
17796;SDS011;55596;53.554;9.916;2022-12-18T07:58:12;13.90;;;9.53;;
17796;SDS011;55596;53.554;9.916;2022-12-18T08:00:38;16.97;;;9.90;;
17796;SDS011;55596;53.554;9.916;2022-12-18T08:03:06;22.57;;;10.27;;
17796;SDS011;55596;53.554;9.916;2022-12-18T08:05:33;15.67;;;10.43;;
17796;SDS011;55596;53.554;9.916;2022-12-18T08:07:59;18.83;;;9.87;;
17796;SDS011;55596;53.554;9.916;2022-12-18T08:10:28;16.53;;;10.30;;
17796;SDS011;55596;53.554;9.916;2022-12-18T08:12:55;15.77;;;9.77;;
17796;SDS011;55596;53.554;9.916;2022-12-18T08:15:22;18.53;;;11.07;;
17796;SDS011;55596;53.554;9.916;2022-12-18T08:17:49;20.20;;;10.47;;
17796;SDS011;55596;53.554;9.916;2022-12-18T08:20:16;18.30;;;10.97;;
17796;SDS011;55596;53.554;9.916;2022-12-18T08:22:43;19.73;;;10.97;;
17796;SDS011;55596;53.554;9.916;2022-12-18T08:25:10;15.83;;;10.17;;
17796;SDS011;55596;53.554;9.916;2022-12-18T08:27:38;18.37;;;10.57;;
17796;SDS011;55596;53.554;9.916;2022-12-18T08:30:06;23.57;;;10.80;;
17796;SDS011;55596;53.554;9.916;2022-12-18T08:32:33;16.40;;;10.67;;
17796;SDS011;55596;53.554;9.916;2022-12-18T08:35:01;20.10;;;10.67;;
17796;SDS011;55596;53.554;9.916;2022-12-18T08:37:28;19.57;;;10.13;;
17796;SDS011;55596;53.554;9.916;2022-12-18T08:39:55;18.20;;;9.77;;
17796;SDS011;55596;53.554;9.916;2022-12-18T08:42:22;17.10;;;9.83;;
17796;SDS011;55596;53.554;9.916;2022-12-18T08:45:08;14.93;;;9.80;;
17796;SDS011;55596;53.554;9.916;2022-12-18T08:47:35;16.13;;;9.43;;
17796;SDS011;55596;53.554;9.916;2022-12-18T08:50:02;18.20;;;10.07;;
17796;SDS011;55596;53.554;9.916;2022-12-18T08:52:31;14.47;;;9.47;;
17796;SDS011;55596;53.554;9.916;2022-12-18T08:54:57;20.07;;;10.43;;
17796;SDS011;55596;53.554;9.916;2022-12-18T08:57:24;16.97;;;9.97;;
17796;SDS011;55596;53.554;9.916;2022-12-18T08:59:51;21.20;;;10.80;;
17796;SDS011;55596;53.554;9.916;2022-12-18T09:02:20;19.73;;;10.43;;
17796;SDS011;55596;53.554;9.916;2022-12-18T09:04:47;18.17;;;9.80;;
17796;SDS011;55596;53.554;9.916;2022-12-18T09:07:14;17.27;;;9.53;;
17796;SDS011;55596;53.554;9.916;2022-12-18T09:09:41;17.57;;;9.63;;
17796;SDS011;55596;53.554;9.916;2022-12-18T09:12:07;12.63;;;9.40;;
17796;SDS011;55596;53.554;9.916;2022-12-18T09:14:35;14.73;;;9.70;;
17796;SDS011;55596;53.554;9.916;2022-12-18T09:17:02;16.33;;;10.10;;
17796;SDS011;55596;53.554;9.916;2022-12-18T09:19:30;16.90;;;9.77;;
17796;SDS011;55596;53.554;9.916;2022-12-18T09:21:57;18.70;;;9.93;;
17796;SDS011;55596;53.554;9.916;2022-12-18T09:24:25;13.03;;;9.30;;
17796;SDS011;55596;53.554;9.916;2022-12-18T09:26:52;15.07;;;9.90;;
17796;SDS011;55596;53.554;9.916;2022-12-18T09:29:20;16.70;;;10.80;;
17796;SDS011;55596;53.554;9.916;2022-12-18T09:31:47;15.87;;;10.07;;
17796;SDS011;55596;53.554;9.916;2022-12-18T09:34:14;17.97;;;10.50;;
17796;SDS011;55596;53.554;9.916;2022-12-18T09:36:43;15.90;;;8.83;;
17796;SDS011;55596;53.554;9.916;2022-12-18T09:39:09;17.30;;;9.33;;
17796;SDS011;55596;53.554;9.916;2022-12-18T09:41:39;14.53;;;9.43;;
17796;SDS011;55596;53.554;9.916;2022-12-18T09:44:12;15.70;;;9.57;;
17796;SDS011;55596;53.554;9.916;2022-12-18T09:46:46;14.37;;;8.80;;
17796;SDS011;55596;53.554;9.916;2022-12-18T09:49:16;13.40;;;8.83;;
17796;SDS011;55596;53.554;9.916;2022-12-18T09:51:49;18.13;;;8.97;;
17796;SDS011;55596;53.554;9.916;2022-12-18T09:54:21;14.43;;;9.00;;
17796;SDS011;55596;53.554;9.916;2022-12-18T09:56:51;18.77;;;9.00;;
17796;SDS011;55596;53.554;9.916;2022-12-18T09:59:21;13.63;;;8.43;;
17796;SDS011;55596;53.554;9.916;2022-12-18T10:01:50;16.37;;;8.67;;
17796;SDS011;55596;53.554;9.916;2022-12-18T10:04:17;14.90;;;8.80;;
17796;SDS011;55596;53.554;9.916;2022-12-18T10:06:46;14.70;;;8.83;;
17796;SDS011;55596;53.554;9.916;2022-12-18T10:09:24;15.90;;;8.87;;
17796;SDS011;55596;53.554;9.916;2022-12-18T10:12:00;13.20;;;8.77;;
17796;SDS011;55596;53.554;9.916;2022-12-18T10:14:35;14.20;;;8.47;;
17796;SDS011;55596;53.554;9.916;2022-12-18T10:17:12;16.00;;;8.90;;
17796;SDS011;55596;53.554;9.916;2022-12-18T10:19:46;14.50;;;8.40;;
17796;SDS011;55596;53.554;9.916;2022-12-18T10:22:24;14.40;;;8.00;;
17796;SDS011;55596;53.554;9.916;2022-12-18T10:25:03;14.40;;;8.87;;
17796;SDS011;55596;53.554;9.916;2022-12-18T10:27:40;14.57;;;8.73;;
17796;SDS011;55596;53.554;9.916;2022-12-18T10:30:11;17.10;;;8.50;;
17796;SDS011;55596;53.554;9.916;2022-12-18T10:32:39;15.37;;;8.13;;
17796;SDS011;55596;53.554;9.916;2022-12-18T10:35:08;15.80;;;8.93;;
17796;SDS011;55596;53.554;9.916;2022-12-18T10:40:29;15.87;;;8.60;;
17796;SDS011;55596;53.554;9.916;2022-12-18T10:43:03;16.87;;;8.87;;
17796;SDS011;55596;53.554;9.916;2022-12-18T10:45:31;15.00;;;8.80;;
17796;SDS011;55596;53.554;9.916;2022-12-18T10:47:58;20.67;;;8.80;;
17796;SDS011;55596;53.554;9.916;2022-12-18T10:50:26;15.50;;;8.47;;
17796;SDS011;55596;53.554;9.916;2022-12-18T10:52:57;15.23;;;8.73;;
17796;SDS011;55596;53.554;9.916;2022-12-18T10:55:29;14.53;;;8.47;;
17796;SDS011;55596;53.554;9.916;2022-12-18T10:58:13;17.67;;;8.23;;
17796;SDS011;55596;53.554;9.916;2022-12-18T11:00:43;17.53;;;8.37;;
17796;SDS011;55596;53.554;9.916;2022-12-18T11:03:28;13.00;;;8.23;;
17796;SDS011;55596;53.554;9.916;2022-12-18T11:06:07;14.30;;;8.13;;
17796;SDS011;55596;53.554;9.916;2022-12-18T11:08:36;14.50;;;8.30;;
17796;SDS011;55596;53.554;9.916;2022-12-18T11:11:06;13.03;;;8.50;;
17796;SDS011;55596;53.554;9.916;2022-12-18T11:13:42;15.27;;;8.17;;
17796;SDS011;55596;53.554;9.916;2022-12-18T11:16:21;12.73;;;8.43;;
17796;SDS011;55596;53.554;9.916;2022-12-18T11:18:48;16.20;;;8.80;;
17796;SDS011;55596;53.554;9.916;2022-12-18T11:21:15;16.50;;;9.37;;
17796;SDS011;55596;53.554;9.916;2022-12-18T11:23:45;17.10;;;9.37;;
17796;SDS011;55596;53.554;9.916;2022-12-18T11:26:16;15.90;;;9.10;;
17796;SDS011;55596;53.554;9.916;2022-12-18T11:28:44;16.07;;;9.33;;
17796;SDS011;55596;53.554;9.916;2022-12-18T11:31:21;15.87;;;10.03;;
17796;SDS011;55596;53.554;9.916;2022-12-18T11:34:02;15.17;;;9.70;;
17796;SDS011;55596;53.554;9.916;2022-12-18T11:36:36;15.93;;;10.23;;
17796;SDS011;55596;53.554;9.916;2022-12-18T11:39:08;18.30;;;9.43;;
17796;SDS011;55596;53.554;9.916;2022-12-18T11:41:43;14.00;;;9.47;;
17796;SDS011;55596;53.554;9.916;2022-12-18T11:44:35;17.40;;;11.07;;
17796;SDS011;55596;53.554;9.916;2022-12-18T11:47:09;13.43;;;8.83;;
17796;SDS011;55596;53.554;9.916;2022-12-18T11:49:46;16.03;;;9.20;;
17796;SDS011;55596;53.554;9.916;2022-12-18T11:52:16;14.07;;;8.73;;
17796;SDS011;55596;53.554;9.916;2022-12-18T11:54:53;13.70;;;8.70;;
17796;SDS011;55596;53.554;9.916;2022-12-18T11:57:28;12.87;;;8.83;;
17796;SDS011;55596;53.554;9.916;2022-12-18T12:00:02;16.13;;;9.63;;
17796;SDS011;55596;53.554;9.916;2022-12-18T12:02:41;15.03;;;10.00;;
17796;SDS011;55596;53.554;9.916;2022-12-18T12:05:32;18.80;;;9.83;;
17796;SDS011;55596;53.554;9.916;2022-12-18T12:08:09;15.77;;;10.90;;
17796;SDS011;55596;53.554;9.916;2022-12-18T12:10:47;16.80;;;10.40;;
17796;SDS011;55596;53.554;9.916;2022-12-18T12:13:28;16.07;;;10.70;;
17796;SDS011;55596;53.554;9.916;2022-12-18T12:16:07;16.43;;;11.07;;
17796;SDS011;55596;53.554;9.916;2022-12-18T12:18:55;18.60;;;11.20;;
17796;SDS011;55596;53.554;9.916;2022-12-18T12:21:33;16.27;;;10.60;;
17796;SDS011;55596;53.554;9.916;2022-12-18T12:24:10;16.07;;;10.47;;
17796;SDS011;55596;53.554;9.916;2022-12-18T12:26:49;17.07;;;11.53;;
17796;SDS011;55596;53.554;9.916;2022-12-18T12:29:28;15.57;;;10.73;;
17796;SDS011;55596;53.554;9.916;2022-12-18T12:32:07;15.60;;;10.73;;
17796;SDS011;55596;53.554;9.916;2022-12-18T12:34:48;16.43;;;10.10;;
17796;SDS011;55596;53.554;9.916;2022-12-18T12:37:29;15.73;;;10.70;;
17796;SDS011;55596;53.554;9.916;2022-12-18T12:40:04;17.63;;;10.67;;
17796;SDS011;55596;53.554;9.916;2022-12-18T12:42:32;16.17;;;10.67;;
17796;SDS011;55596;53.554;9.916;2022-12-18T12:45:26;18.23;;;10.80;;
17796;SDS011;55596;53.554;9.916;2022-12-18T12:47:59;16.83;;;10.37;;
17796;SDS011;55596;53.554;9.916;2022-12-18T12:50:28;15.50;;;10.40;;
17796;SDS011;55596;53.554;9.916;2022-12-18T12:53:00;15.10;;;10.27;;
17796;SDS011;55596;53.554;9.916;2022-12-18T12:55:31;19.40;;;9.93;;
17796;SDS011;55596;53.554;9.916;2022-12-18T12:58:01;17.60;;;10.33;;
17796;SDS011;55596;53.554;9.916;2022-12-18T13:00:46;14.83;;;10.00;;
17796;SDS011;55596;53.554;9.916;2022-12-18T13:03:23;18.03;;;10.57;;
17796;SDS011;55596;53.554;9.916;2022-12-18T13:05:59;15.30;;;10.17;;
17796;SDS011;55596;53.554;9.916;2022-12-18T13:08:29;15.63;;;9.77;;
17796;SDS011;55596;53.554;9.916;2022-12-18T13:10:57;15.93;;;10.60;;
17796;SDS011;55596;53.554;9.916;2022-12-18T13:13:49;18.10;;;10.47;;
17796;SDS011;55596;53.554;9.916;2022-12-18T13:16:19;17.07;;;11.23;;
17796;SDS011;55596;53.554;9.916;2022-12-18T13:18:48;18.07;;;10.70;;
17796;SDS011;55596;53.554;9.916;2022-12-18T13:21:19;20.83;;;11.53;;
17796;SDS011;55596;53.554;9.916;2022-12-18T13:23:49;18.27;;;11.10;;
17796;SDS011;55596;53.554;9.916;2022-12-18T13:26:30;16.73;;;10.30;;
17796;SDS011;55596;53.554;9.916;2022-12-18T13:29:01;16.93;;;11.37;;
17796;SDS011;55596;53.554;9.916;2022-12-18T13:34:34;19.43;;;11.20;;
17796;SDS011;55596;53.554;9.916;2022-12-18T13:43:26;20.10;;;12.60;;
17796;SDS011;55596;53.554;9.916;2022-12-18T13:46:05;22.53;;;13.33;;
17796;SDS011;55596;53.554;9.916;2022-12-18T13:48:49;23.70;;;13.70;;
17796;SDS011;55596;53.554;9.916;2022-12-18T13:51:29;26.77;;;13.97;;
17796;SDS011;55596;53.554;9.916;2022-12-18T13:53:59;28.97;;;14.40;;
17796;SDS011;55596;53.554;9.916;2022-12-18T13:56:30;20.47;;;12.47;;
17796;SDS011;55596;53.554;9.916;2022-12-18T13:59:16;25.43;;;14.03;;
17796;SDS011;55596;53.554;9.916;2022-12-18T14:01:46;22.03;;;12.60;;
17796;SDS011;55596;53.554;9.916;2022-12-18T14:04:21;28.47;;;15.03;;
17796;SDS011;55596;53.554;9.916;2022-12-18T14:06:53;25.23;;;14.17;;
17796;SDS011;55596;53.554;9.916;2022-12-18T14:09:25;28.93;;;15.17;;
17796;SDS011;55596;53.554;9.916;2022-12-18T14:11:55;28.75;;;18.35;;
17796;SDS011;55596;53.554;9.916;2022-12-18T14:14:37;28.33;;;16.17;;
17796;SDS011;55596;53.554;9.916;2022-12-18T14:17:08;25.00;;;14.80;;
17796;SDS011;55596;53.554;9.916;2022-12-18T14:19:37;28.40;;;15.57;;
17796;SDS011;55596;53.554;9.916;2022-12-18T14:22:13;29.27;;;15.73;;
17796;SDS011;55596;53.554;9.916;2022-12-18T14:24:44;25.97;;;14.73;;
17796;SDS011;55596;53.554;9.916;2022-12-18T14:27:21;30.47;;;15.77;;
17796;SDS011;55596;53.554;9.916;2022-12-18T14:29:50;29.57;;;14.83;;
17796;SDS011;55596;53.554;9.916;2022-12-18T14:32:19;27.53;;;15.17;;
17796;SDS011;55596;53.554;9.916;2022-12-18T14:34:48;33.93;;;15.33;;
17796;SDS011;55596;53.554;9.916;2022-12-18T14:37:20;30.00;;;15.37;;
17796;SDS011;55596;53.554;9.916;2022-12-18T14:39:52;30.00;;;15.20;;
17796;SDS011;55596;53.554;9.916;2022-12-18T14:42:20;27.33;;;14.83;;
17796;SDS011;55596;53.554;9.916;2022-12-18T14:44:47;31.67;;;16.27;;
17796;SDS011;55596;53.554;9.916;2022-12-18T14:47:14;29.57;;;15.87;;
17796;SDS011;55596;53.554;9.916;2022-12-18T14:49:42;31.63;;;15.57;;
17796;SDS011;55596;53.554;9.916;2022-12-18T14:52:16;29.23;;;15.60;;
17796;SDS011;55596;53.554;9.916;2022-12-18T14:54:50;26.30;;;15.13;;